sensor_id;sensor_type;location;lat;lon;timestamp;P1;durP1;ratioP1;P2;durP2;ratioP2
4186;SDS011;2107;52.306;10.484;2023-04-24T00:00:39;0.50;;;0.50;;
4186;SDS011;2107;52.306;10.484;2023-04-24T00:03:07;0.40;;;0.40;;
4186;SDS011;2107;52.306;10.484;2023-04-24T00:05:34;0.40;;;0.40;;
4186;SDS011;2107;52.306;10.484;2023-04-24T00:08:01;0.40;;;0.40;;
4186;SDS011;2107;52.306;10.484;2023-04-24T00:10:27;0.40;;;0.40;;
4186;SDS011;2107;52.306;10.484;2023-04-24T00:12:56;0.40;;;0.40;;
4186;SDS011;2107;52.306;10.484;2023-04-24T00:15:23;0.30;;;0.30;;
4186;SDS011;2107;52.306;10.484;2023-04-24T00:17:50;0.40;;;0.40;;
4186;SDS011;2107;52.306;10.484;2023-04-24T00:20:18;0.40;;;0.40;;
4186;SDS011;2107;52.306;10.484;2023-04-24T00:22:45;0.30;;;0.30;;
4186;SDS011;2107;52.306;10.484;2023-04-24T00:25:12;0.30;;;0.30;;
4186;SDS011;2107;52.306;10.484;2023-04-24T00:27:39;0.40;;;0.40;;
4186;SDS011;2107;52.306;10.484;2023-04-24T00:30:08;0.40;;;0.40;;
4186;SDS011;2107;52.306;10.484;2023-04-24T00:32:35;0.30;;;0.30;;
4186;SDS011;2107;52.306;10.484;2023-04-24T00:35:02;0.30;;;0.30;;
4186;SDS011;2107;52.306;10.484;2023-04-24T00:37:29;0.30;;;0.30;;
4186;SDS011;2107;52.306;10.484;2023-04-24T00:39:56;0.30;;;0.30;;
4186;SDS011;2107;52.306;10.484;2023-04-24T00:42:23;0.30;;;0.30;;
4186;SDS011;2107;52.306;10.484;2023-04-24T00:44:50;0.30;;;0.30;;
4186;SDS011;2107;52.306;10.484;2023-04-24T00:47:18;0.30;;;0.30;;
4186;SDS011;2107;52.306;10.484;2023-04-24T00:49:46;0.30;;;0.30;;
4186;SDS011;2107;52.306;10.484;2023-04-24T00:52:13;0.40;;;0.40;;
4186;SDS011;2107;52.306;10.484;2023-04-24T00:54:42;0.30;;;0.30;;
4186;SDS011;2107;52.306;10.484;2023-04-24T00:57:09;0.30;;;0.30;;
4186;SDS011;2107;52.306;10.484;2023-04-24T00:59:36;0.30;;;0.30;;
4186;SDS011;2107;52.306;10.484;2023-04-24T01:02:03;0.30;;;0.30;;
4186;SDS011;2107;52.306;10.484;2023-04-24T01:04:32;0.30;;;0.30;;
4186;SDS011;2107;52.306;10.484;2023-04-24T01:06:59;0.30;;;0.30;;
4186;SDS011;2107;52.306;10.484;2023-04-24T01:09:26;0.30;;;0.30;;
4186;SDS011;2107;52.306;10.484;2023-04-24T01:11:53;0.30;;;0.30;;
4186;SDS011;2107;52.306;10.484;2023-04-24T01:14:21;0.30;;;0.30;;
4186;SDS011;2107;52.306;10.484;2023-04-24T01:16:48;0.30;;;0.30;;
4186;SDS011;2107;52.306;10.484;2023-04-24T01:19:15;0.30;;;0.30;;
4186;SDS011;2107;52.306;10.484;2023-04-24T01:21:45;0.30;;;0.30;;
4186;SDS011;2107;52.306;10.484;2023-04-24T01:24:18;0.30;;;0.30;;
4186;SDS011;2107;52.306;10.484;2023-04-24T01:26:45;0.30;;;0.30;;
4186;SDS011;2107;52.306;10.484;2023-04-24T01:29:12;0.30;;;0.30;;
4186;SDS011;2107;52.306;10.484;2023-04-24T01:31:39;0.20;;;0.20;;
4186;SDS011;2107;52.306;10.484;2023-04-24T01:34:06;0.20;;;0.20;;
4186;SDS011;2107;52.306;10.484;2023-04-24T01:36:34;0.30;;;0.30;;
4186;SDS011;2107;52.306;10.484;2023-04-24T01:39:01;0.30;;;0.30;;
4186;SDS011;2107;52.306;10.484;2023-04-24T01:41:30;0.30;;;0.30;;
4186;SDS011;2107;52.306;10.484;2023-04-24T01:43:57;0.30;;;0.30;;
4186;SDS011;2107;52.306;10.484;2023-04-24T01:46:24;0.20;;;0.20;;
4186;SDS011;2107;52.306;10.484;2023-04-24T01:48:51;0.20;;;0.20;;
4186;SDS011;2107;52.306;10.484;2023-04-24T01:51:19;0.30;;;0.30;;
4186;SDS011;2107;52.306;10.484;2023-04-24T01:53:46;0.20;;;0.20;;
4186;SDS011;2107;52.306;10.484;2023-04-24T01:56:13;0.20;;;0.20;;
4186;SDS011;2107;52.306;10.484;2023-04-24T01:58:41;0.20;;;0.20;;
4186;SDS011;2107;52.306;10.484;2023-04-24T02:01:10;0.30;;;0.30;;
4186;SDS011;2107;52.306;10.484;2023-04-24T02:03:43;0.20;;;0.20;;
4186;SDS011;2107;52.306;10.484;2023-04-24T02:06:10;0.20;;;0.20;;
4186;SDS011;2107;52.306;10.484;2023-04-24T02:08:37;0.30;;;0.30;;
4186;SDS011;2107;52.306;10.484;2023-04-24T02:11:04;0.30;;;0.30;;
4186;SDS011;2107;52.306;10.484;2023-04-24T02:13:31;0.20;;;0.20;;
4186;SDS011;2107;52.306;10.484;2023-04-24T02:15:59;0.20;;;0.20;;
4186;SDS011;2107;52.306;10.484;2023-04-24T02:18:26;0.20;;;0.20;;
4186;SDS011;2107;52.306;10.484;2023-04-24T02:20:53;0.30;;;0.30;;
4186;SDS011;2107;52.306;10.484;2023-04-24T02:23:20;0.30;;;0.30;;
4186;SDS011;2107;52.306;10.484;2023-04-24T02:25:47;0.20;;;0.20;;
4186;SDS011;2107;52.306;10.484;2023-04-24T02:28:13;0.30;;;0.30;;
4186;SDS011;2107;52.306;10.484;2023-04-24T02:30:40;0.20;;;0.20;;
4186;SDS011;2107;52.306;10.484;2023-04-24T02:33:08;0.23;;;0.23;;
4186;SDS011;2107;52.306;10.484;2023-04-24T02:35:35;0.20;;;0.20;;
4186;SDS011;2107;52.306;10.484;2023-04-24T02:38:02;0.30;;;0.30;;
4186;SDS011;2107;52.306;10.484;2023-04-24T02:40:29;0.40;;;0.40;;
4186;SDS011;2107;52.306;10.484;2023-04-24T02:42:56;0.20;;;0.20;;
4186;SDS011;2107;52.306;10.484;2023-04-24T02:45:23;0.30;;;0.30;;
4186;SDS011;2107;52.306;10.484;2023-04-24T02:47:50;0.30;;;0.30;;
4186;SDS011;2107;52.306;10.484;2023-04-24T02:50:18;0.20;;;0.20;;
4186;SDS011;2107;52.306;10.484;2023-04-24T02:52:45;0.20;;;0.20;;
4186;SDS011;2107;52.306;10.484;2023-04-24T02:55:12;0.20;;;0.20;;
4186;SDS011;2107;52.306;10.484;2023-04-24T02:57:39;0.20;;;0.20;;
4186;SDS011;2107;52.306;10.484;2023-04-24T03:00:06;0.20;;;0.20;;
4186;SDS011;2107;52.306;10.484;2023-04-24T03:02:34;0.20;;;0.20;;
4186;SDS011;2107;52.306;10.484;2023-04-24T03:05:01;0.20;;;0.20;;
4186;SDS011;2107;52.306;10.484;2023-04-24T03:07:29;0.20;;;0.20;;
4186;SDS011;2107;52.306;10.484;2023-04-24T03:09:57;0.20;;;0.20;;
4186;SDS011;2107;52.306;10.484;2023-04-24T03:12:24;0.20;;;0.20;;
4186;SDS011;2107;52.306;10.484;2023-04-24T03:14:51;0.20;;;0.20;;
4186;SDS011;2107;52.306;10.484;2023-04-24T03:17:18;0.20;;;0.20;;
4186;SDS011;2107;52.306;10.484;2023-04-24T03:19:44;0.20;;;0.20;;
4186;SDS011;2107;52.306;10.484;2023-04-24T03:22:11;0.30;;;0.30;;
4186;SDS011;2107;52.306;10.484;2023-04-24T03:24:40;0.30;;;0.30;;
4186;SDS011;2107;52.306;10.484;2023-04-24T03:27:06;0.30;;;0.30;;
4186;SDS011;2107;52.306;10.484;2023-04-24T03:29:33;0.20;;;0.20;;
4186;SDS011;2107;52.306;10.484;2023-04-24T03:32:00;0.30;;;0.30;;
4186;SDS011;2107;52.306;10.484;2023-04-24T03:34:27;0.30;;;0.30;;
4186;SDS011;2107;52.306;10.484;2023-04-24T03:36:54;0.30;;;0.30;;
4186;SDS011;2107;52.306;10.484;2023-04-24T03:39:21;0.30;;;0.30;;
4186;SDS011;2107;52.306;10.484;2023-04-24T03:41:49;0.20;;;0.20;;
4186;SDS011;2107;52.306;10.484;2023-04-24T03:44:15;0.20;;;0.20;;
4186;SDS011;2107;52.306;10.484;2023-04-24T03:46:42;0.30;;;0.30;;
4186;SDS011;2107;52.306;10.484;2023-04-24T03:49:09;0.30;;;0.30;;
4186;SDS011;2107;52.306;10.484;2023-04-24T03:51:36;0.30;;;0.30;;
4186;SDS011;2107;52.306;10.484;2023-04-24T03:54:03;0.30;;;0.30;;
4186;SDS011;2107;52.306;10.484;2023-04-24T03:56:30;0.30;;;0.30;;
4186;SDS011;2107;52.306;10.484;2023-04-24T03:58:58;0.50;;;0.50;;
4186;SDS011;2107;52.306;10.484;2023-04-24T04:01:25;0.67;;;0.67;;
4186;SDS011;2107;52.306;10.484;2023-04-24T04:03:53;0.47;;;0.47;;
4186;SDS011;2107;52.306;10.484;2023-04-24T04:06:20;0.60;;;0.60;;
4186;SDS011;2107;52.306;10.484;2023-04-24T04:08:47;0.50;;;0.50;;
4186;SDS011;2107;52.306;10.484;2023-04-24T04:11:14;0.50;;;0.50;;
4186;SDS011;2107;52.306;10.484;2023-04-24T04:13:41;0.53;;;0.53;;
4186;SDS011;2107;52.306;10.484;2023-04-24T04:16:09;0.43;;;0.43;;
4186;SDS011;2107;52.306;10.484;2023-04-24T04:18:36;0.40;;;0.40;;
4186;SDS011;2107;52.306;10.484;2023-04-24T04:21:03;0.40;;;0.40;;
4186;SDS011;2107;52.306;10.484;2023-04-24T04:23:30;0.70;;;0.70;;
4186;SDS011;2107;52.306;10.484;2023-04-24T04:25:57;0.50;;;0.50;;
4186;SDS011;2107;52.306;10.484;2023-04-24T04:28:24;0.50;;;0.50;;
4186;SDS011;2107;52.306;10.484;2023-04-24T04:30:51;0.60;;;0.60;;
4186;SDS011;2107;52.306;10.484;2023-04-24T04:33:20;0.60;;;0.60;;
4186;SDS011;2107;52.306;10.484;2023-04-24T04:35:47;0.70;;;0.70;;
4186;SDS011;2107;52.306;10.484;2023-04-24T04:38:14;0.80;;;0.80;;
4186;SDS011;2107;52.306;10.484;2023-04-24T04:40:41;0.70;;;0.70;;
4186;SDS011;2107;52.306;10.484;2023-04-24T04:43:08;0.60;;;0.60;;
4186;SDS011;2107;52.306;10.484;2023-04-24T04:45:36;0.50;;;0.50;;
4186;SDS011;2107;52.306;10.484;2023-04-24T04:48:05;0.60;;;0.60;;
4186;SDS011;2107;52.306;10.484;2023-04-24T04:50:34;0.60;;;0.60;;
4186;SDS011;2107;52.306;10.484;2023-04-24T04:53:01;0.50;;;0.50;;
4186;SDS011;2107;52.306;10.484;2023-04-24T04:55:27;0.60;;;0.60;;
4186;SDS011;2107;52.306;10.484;2023-04-24T04:57:55;0.60;;;0.60;;
4186;SDS011;2107;52.306;10.484;2023-04-24T05:00:22;0.50;;;0.50;;
4186;SDS011;2107;52.306;10.484;2023-04-24T05:02:50;0.70;;;0.70;;
4186;SDS011;2107;52.306;10.484;2023-04-24T05:05:17;0.60;;;0.60;;
4186;SDS011;2107;52.306;10.484;2023-04-24T05:07:45;0.50;;;0.50;;
4186;SDS011;2107;52.306;10.484;2023-04-24T05:10:12;0.50;;;0.50;;
4186;SDS011;2107;52.306;10.484;2023-04-24T05:12:39;0.60;;;0.60;;
4186;SDS011;2107;52.306;10.484;2023-04-24T05:15:06;0.50;;;0.50;;
4186;SDS011;2107;52.306;10.484;2023-04-24T05:17:34;0.50;;;0.50;;
4186;SDS011;2107;52.306;10.484;2023-04-24T05:20:03;0.60;;;0.60;;
4186;SDS011;2107;52.306;10.484;2023-04-24T05:22:31;0.70;;;0.70;;
4186;SDS011;2107;52.306;10.484;2023-04-24T05:25:00;0.70;;;0.70;;
4186;SDS011;2107;52.306;10.484;2023-04-24T05:27:27;0.80;;;0.80;;
4186;SDS011;2107;52.306;10.484;2023-04-24T05:29:54;0.70;;;0.70;;
4186;SDS011;2107;52.306;10.484;2023-04-24T05:32:21;0.80;;;0.80;;
4186;SDS011;2107;52.306;10.484;2023-04-24T05:34:48;0.60;;;0.60;;
4186;SDS011;2107;52.306;10.484;2023-04-24T05:37:14;0.50;;;0.50;;
4186;SDS011;2107;52.306;10.484;2023-04-24T05:39:41;0.70;;;0.70;;
4186;SDS011;2107;52.306;10.484;2023-04-24T05:42:09;0.50;;;0.50;;
4186;SDS011;2107;52.306;10.484;2023-04-24T05:44:36;0.70;;;0.70;;
4186;SDS011;2107;52.306;10.484;2023-04-24T05:47:03;0.50;;;0.50;;
4186;SDS011;2107;52.306;10.484;2023-04-24T05:49:30;0.50;;;0.50;;
4186;SDS011;2107;52.306;10.484;2023-04-24T05:51:57;0.60;;;0.60;;
4186;SDS011;2107;52.306;10.484;2023-04-24T05:54:23;0.67;;;0.67;;
4186;SDS011;2107;52.306;10.484;2023-04-24T05:56:50;0.80;;;0.80;;
4186;SDS011;2107;52.306;10.484;2023-04-24T05:59:20;1.00;;;1.00;;
4186;SDS011;2107;52.306;10.484;2023-04-24T06:01:47;0.90;;;0.90;;
4186;SDS011;2107;52.306;10.484;2023-04-24T06:04:14;0.73;;;0.73;;
4186;SDS011;2107;52.306;10.484;2023-04-24T06:06:41;0.70;;;0.70;;
4186;SDS011;2107;52.306;10.484;2023-04-24T06:09:08;0.90;;;0.90;;
4186;SDS011;2107;52.306;10.484;2023-04-24T06:11:35;0.70;;;0.70;;
4186;SDS011;2107;52.306;10.484;2023-04-24T06:14:02;0.80;;;0.80;;
4186;SDS011;2107;52.306;10.484;2023-04-24T06:16:30;0.77;;;0.77;;
4186;SDS011;2107;52.306;10.484;2023-04-24T06:18:57;0.60;;;0.60;;
4186;SDS011;2107;52.306;10.484;2023-04-24T06:21:24;0.60;;;0.60;;
4186;SDS011;2107;52.306;10.484;2023-04-24T06:23:51;0.40;;;0.40;;
4186;SDS011;2107;52.306;10.484;2023-04-24T06:26:18;0.50;;;0.50;;
4186;SDS011;2107;52.306;10.484;2023-04-24T06:28:44;0.53;;;0.53;;
4186;SDS011;2107;52.306;10.484;2023-04-24T06:31:11;0.60;;;0.60;;
4186;SDS011;2107;52.306;10.484;2023-04-24T06:33:39;0.50;;;0.50;;
4186;SDS011;2107;52.306;10.484;2023-04-24T06:36:06;0.50;;;0.50;;
4186;SDS011;2107;52.306;10.484;2023-04-24T06:38:33;0.70;;;0.70;;
4186;SDS011;2107;52.306;10.484;2023-04-24T06:41:00;0.60;;;0.60;;
4186;SDS011;2107;52.306;10.484;2023-04-24T06:43:28;0.60;;;0.60;;
4186;SDS011;2107;52.306;10.484;2023-04-24T06:45:55;0.60;;;0.60;;
4186;SDS011;2107;52.306;10.484;2023-04-24T06:48:22;0.60;;;0.60;;
4186;SDS011;2107;52.306;10.484;2023-04-24T06:50:51;0.40;;;0.40;;
4186;SDS011;2107;52.306;10.484;2023-04-24T06:53:18;0.40;;;0.40;;
4186;SDS011;2107;52.306;10.484;2023-04-24T06:55:45;0.30;;;0.30;;
4186;SDS011;2107;52.306;10.484;2023-04-24T06:58:12;0.50;;;0.50;;
4186;SDS011;2107;52.306;10.484;2023-04-24T07:00:40;0.40;;;0.40;;
4186;SDS011;2107;52.306;10.484;2023-04-24T07:03:06;0.50;;;0.50;;
4186;SDS011;2107;52.306;10.484;2023-04-24T07:05:33;0.50;;;0.50;;
4186;SDS011;2107;52.306;10.484;2023-04-24T07:08:04;0.60;;;0.60;;
4186;SDS011;2107;52.306;10.484;2023-04-24T07:10:31;0.60;;;0.60;;
4186;SDS011;2107;52.306;10.484;2023-04-24T07:13:00;0.60;;;0.60;;
4186;SDS011;2107;52.306;10.484;2023-04-24T07:15:27;0.50;;;0.50;;
4186;SDS011;2107;52.306;10.484;2023-04-24T07:17:54;0.70;;;0.70;;
4186;SDS011;2107;52.306;10.484;2023-04-24T07:20:21;0.80;;;0.80;;
4186;SDS011;2107;52.306;10.484;2023-04-24T07:22:48;0.70;;;0.70;;
4186;SDS011;2107;52.306;10.484;2023-04-24T07:25:16;0.60;;;0.60;;
4186;SDS011;2107;52.306;10.484;2023-04-24T07:27:43;0.77;;;0.77;;
4186;SDS011;2107;52.306;10.484;2023-04-24T07:30:10;0.80;;;0.80;;
4186;SDS011;2107;52.306;10.484;2023-04-24T07:32:37;0.70;;;0.70;;
4186;SDS011;2107;52.306;10.484;2023-04-24T07:35:04;0.50;;;0.50;;
4186;SDS011;2107;52.306;10.484;2023-04-24T07:37:32;0.60;;;0.60;;
4186;SDS011;2107;52.306;10.484;2023-04-24T07:39:58;0.70;;;0.70;;
4186;SDS011;2107;52.306;10.484;2023-04-24T07:42:27;0.80;;;0.80;;
4186;SDS011;2107;52.306;10.484;2023-04-24T07:44:55;2.00;;;2.00;;
4186;SDS011;2107;52.306;10.484;2023-04-24T07:47:22;2.50;;;2.50;;
4186;SDS011;2107;52.306;10.484;2023-04-24T07:49:49;2.00;;;2.00;;
4186;SDS011;2107;52.306;10.484;2023-04-24T07:52:16;1.60;;;1.60;;
4186;SDS011;2107;52.306;10.484;2023-04-24T07:54:43;1.40;;;1.40;;
4186;SDS011;2107;52.306;10.484;2023-04-24T07:57:10;1.40;;;1.40;;
4186;SDS011;2107;52.306;10.484;2023-04-24T07:59:38;1.20;;;1.20;;
4186;SDS011;2107;52.306;10.484;2023-04-24T08:02:05;1.40;;;1.40;;
4186;SDS011;2107;52.306;10.484;2023-04-24T08:04:32;1.00;;;1.00;;
4186;SDS011;2107;52.306;10.484;2023-04-24T08:06:59;1.20;;;1.20;;
4186;SDS011;2107;52.306;10.484;2023-04-24T08:09:26;1.10;;;1.10;;
4186;SDS011;2107;52.306;10.484;2023-04-24T08:11:53;1.00;;;1.00;;
4186;SDS011;2107;52.306;10.484;2023-04-24T08:14:19;0.90;;;0.90;;
4186;SDS011;2107;52.306;10.484;2023-04-24T08:16:48;0.57;;;0.57;;
4186;SDS011;2107;52.306;10.484;2023-04-24T08:19:14;0.60;;;0.60;;
4186;SDS011;2107;52.306;10.484;2023-04-24T08:21:41;0.60;;;0.60;;
4186;SDS011;2107;52.306;10.484;2023-04-24T08:24:08;0.80;;;0.80;;
4186;SDS011;2107;52.306;10.484;2023-04-24T08:26:35;0.60;;;0.60;;
4186;SDS011;2107;52.306;10.484;2023-04-24T08:29:02;0.70;;;0.70;;
4186;SDS011;2107;52.306;10.484;2023-04-24T08:31:31;0.70;;;0.70;;
4186;SDS011;2107;52.306;10.484;2023-04-24T08:34:00;0.70;;;0.70;;
4186;SDS011;2107;52.306;10.484;2023-04-24T08:36:26;0.70;;;0.70;;
4186;SDS011;2107;52.306;10.484;2023-04-24T08:38:53;0.70;;;0.70;;
4186;SDS011;2107;52.306;10.484;2023-04-24T08:41:20;0.63;;;0.63;;
4186;SDS011;2107;52.306;10.484;2023-04-24T08:43:51;0.80;;;0.80;;
4186;SDS011;2107;52.306;10.484;2023-04-24T08:46:18;0.80;;;0.80;;
4186;SDS011;2107;52.306;10.484;2023-04-24T08:48:46;0.70;;;0.70;;
4186;SDS011;2107;52.306;10.484;2023-04-24T08:51:15;0.60;;;0.60;;
4186;SDS011;2107;52.306;10.484;2023-04-24T08:53:43;0.70;;;0.70;;
4186;SDS011;2107;52.306;10.484;2023-04-24T08:56:12;0.50;;;0.50;;
4186;SDS011;2107;52.306;10.484;2023-04-24T08:58:41;0.70;;;0.70;;
4186;SDS011;2107;52.306;10.484;2023-04-24T09:01:09;0.60;;;0.60;;
4186;SDS011;2107;52.306;10.484;2023-04-24T09:03:36;0.67;;;0.67;;
4186;SDS011;2107;52.306;10.484;2023-04-24T09:06:04;0.80;;;0.80;;
4186;SDS011;2107;52.306;10.484;2023-04-24T09:08:35;0.63;;;0.63;;
4186;SDS011;2107;52.306;10.484;2023-04-24T09:11:02;0.90;;;0.90;;
4186;SDS011;2107;52.306;10.484;2023-04-24T09:13:30;0.83;;;0.83;;
4186;SDS011;2107;52.306;10.484;2023-04-24T09:15:58;0.80;;;0.80;;
4186;SDS011;2107;52.306;10.484;2023-04-24T09:18:25;1.03;;;1.03;;
4186;SDS011;2107;52.306;10.484;2023-04-24T09:20:59;1.50;;;1.50;;
4186;SDS011;2107;52.306;10.484;2023-04-24T09:23:28;1.07;;;1.07;;
4186;SDS011;2107;52.306;10.484;2023-04-24T09:25:57;1.10;;;1.10;;
4186;SDS011;2107;52.306;10.484;2023-04-24T09:28:26;1.10;;;1.10;;
4186;SDS011;2107;52.306;10.484;2023-04-24T09:31:02;1.00;;;1.00;;
4186;SDS011;2107;52.306;10.484;2023-04-24T09:33:30;0.90;;;0.90;;
4186;SDS011;2107;52.306;10.484;2023-04-24T09:35:57;1.00;;;1.00;;
4186;SDS011;2107;52.306;10.484;2023-04-24T09:38:30;0.90;;;0.90;;
4186;SDS011;2107;52.306;10.484;2023-04-24T09:41:00;1.10;;;1.10;;
4186;SDS011;2107;52.306;10.484;2023-04-24T09:43:28;1.10;;;1.10;;
4186;SDS011;2107;52.306;10.484;2023-04-24T09:45:56;0.90;;;0.90;;
4186;SDS011;2107;52.306;10.484;2023-04-24T09:48:30;1.20;;;1.20;;
4186;SDS011;2107;52.306;10.484;2023-04-24T09:50:57;1.40;;;1.40;;
4186;SDS011;2107;52.306;10.484;2023-04-24T09:53:28;1.37;;;1.37;;
4186;SDS011;2107;52.306;10.484;2023-04-24T09:55:55;0.90;;;0.90;;
4186;SDS011;2107;52.306;10.484;2023-04-24T09:58:29;0.80;;;0.80;;
4186;SDS011;2107;52.306;10.484;2023-04-24T10:00:56;0.60;;;0.60;;
4186;SDS011;2107;52.306;10.484;2023-04-24T10:03:23;0.90;;;0.90;;
4186;SDS011;2107;52.306;10.484;2023-04-24T10:05:52;1.00;;;1.00;;
4186;SDS011;2107;52.306;10.484;2023-04-24T10:08:20;0.80;;;0.80;;
4186;SDS011;2107;52.306;10.484;2023-04-24T10:10:47;1.07;;;1.07;;
4186;SDS011;2107;52.306;10.484;2023-04-24T10:13:14;1.00;;;1.00;;
4186;SDS011;2107;52.306;10.484;2023-04-24T10:15:42;1.10;;;1.10;;
4186;SDS011;2107;52.306;10.484;2023-04-24T10:18:10;1.00;;;1.00;;
4186;SDS011;2107;52.306;10.484;2023-04-24T10:20:38;1.00;;;1.00;;
4186;SDS011;2107;52.306;10.484;2023-04-24T10:23:06;1.10;;;1.10;;
4186;SDS011;2107;52.306;10.484;2023-04-24T10:25:33;1.10;;;1.10;;
4186;SDS011;2107;52.306;10.484;2023-04-24T10:28:02;1.10;;;1.10;;
4186;SDS011;2107;52.306;10.484;2023-04-24T10:30:30;1.10;;;1.10;;
4186;SDS011;2107;52.306;10.484;2023-04-24T10:33:01;0.90;;;0.90;;
4186;SDS011;2107;52.306;10.484;2023-04-24T10:35:30;1.10;;;1.10;;
4186;SDS011;2107;52.306;10.484;2023-04-24T10:37:59;1.10;;;1.10;;
4186;SDS011;2107;52.306;10.484;2023-04-24T10:40:30;1.20;;;1.20;;
4186;SDS011;2107;52.306;10.484;2023-04-24T10:42:59;1.00;;;1.00;;
4186;SDS011;2107;52.306;10.484;2023-04-24T10:45:28;1.20;;;1.20;;
4186;SDS011;2107;52.306;10.484;2023-04-24T10:47:58;1.00;;;1.00;;
4186;SDS011;2107;52.306;10.484;2023-04-24T10:50:28;1.10;;;1.10;;
4186;SDS011;2107;52.306;10.484;2023-04-24T10:53:04;1.20;;;1.20;;
4186;SDS011;2107;52.306;10.484;2023-04-24T10:55:39;1.07;;;1.07;;
4186;SDS011;2107;52.306;10.484;2023-04-24T10:58:07;0.97;;;0.97;;
4186;SDS011;2107;52.306;10.484;2023-04-24T11:00:36;1.00;;;1.00;;
4186;SDS011;2107;52.306;10.484;2023-04-24T11:03:05;0.90;;;0.90;;
4186;SDS011;2107;52.306;10.484;2023-04-24T11:05:49;0.83;;;0.83;;
4186;SDS011;2107;52.306;10.484;2023-04-24T11:08:22;0.70;;;0.70;;
4186;SDS011;2107;52.306;10.484;2023-04-24T11:10:55;1.00;;;1.00;;
4186;SDS011;2107;52.306;10.484;2023-04-24T11:16:44;0.93;;;0.93;;
4186;SDS011;2107;52.306;10.484;2023-04-24T11:19:20;0.60;;;0.60;;
4186;SDS011;2107;52.306;10.484;2023-04-24T11:21:50;0.70;;;0.70;;
4186;SDS011;2107;52.306;10.484;2023-04-24T11:24:29;0.90;;;0.90;;
4186;SDS011;2107;52.306;10.484;2023-04-24T11:26:59;1.00;;;1.00;;
4186;SDS011;2107;52.306;10.484;2023-04-24T11:29:39;0.90;;;0.90;;
4186;SDS011;2107;52.306;10.484;2023-04-24T11:32:23;1.20;;;1.20;;
4186;SDS011;2107;52.306;10.484;2023-04-24T11:34:53;1.20;;;1.20;;
4186;SDS011;2107;52.306;10.484;2023-04-24T11:37:21;1.40;;;1.40;;
4186;SDS011;2107;52.306;10.484;2023-04-24T11:39:50;1.30;;;1.30;;
4186;SDS011;2107;52.306;10.484;2023-04-24T11:42:19;1.40;;;1.40;;
4186;SDS011;2107;52.306;10.484;2023-04-24T11:44:47;1.40;;;1.40;;
4186;SDS011;2107;52.306;10.484;2023-04-24T11:47:15;1.40;;;1.40;;
4186;SDS011;2107;52.306;10.484;2023-04-24T11:49:42;1.30;;;1.30;;
4186;SDS011;2107;52.306;10.484;2023-04-24T11:52:10;1.10;;;1.10;;
4186;SDS011;2107;52.306;10.484;2023-04-24T11:54:46;1.30;;;1.30;;
4186;SDS011;2107;52.306;10.484;2023-04-24T11:57:14;1.53;;;1.53;;
4186;SDS011;2107;52.306;10.484;2023-04-24T11:59:41;1.20;;;1.20;;
4186;SDS011;2107;52.306;10.484;2023-04-24T12:02:08;1.20;;;1.20;;
4186;SDS011;2107;52.306;10.484;2023-04-24T12:04:38;1.00;;;1.00;;
4186;SDS011;2107;52.306;10.484;2023-04-24T12:07:06;1.27;;;1.27;;
4186;SDS011;2107;52.306;10.484;2023-04-24T12:09:45;1.43;;;1.43;;
4186;SDS011;2107;52.306;10.484;2023-04-24T12:12:12;1.50;;;1.50;;
4186;SDS011;2107;52.306;10.484;2023-04-24T12:14:44;1.37;;;1.37;;
4186;SDS011;2107;52.306;10.484;2023-04-24T12:17:13;1.50;;;1.50;;
4186;SDS011;2107;52.306;10.484;2023-04-24T12:19:44;1.47;;;1.47;;
4186;SDS011;2107;52.306;10.484;2023-04-24T12:22:12;1.80;;;1.80;;
4186;SDS011;2107;52.306;10.484;2023-04-24T12:27:23;2.00;;;2.00;;
4186;SDS011;2107;52.306;10.484;2023-04-24T12:29:51;1.77;;;1.77;;
4186;SDS011;2107;52.306;10.484;2023-04-24T12:32:18;1.90;;;1.90;;
4186;SDS011;2107;52.306;10.484;2023-04-24T12:34:45;1.70;;;1.70;;
4186;SDS011;2107;52.306;10.484;2023-04-24T12:37:12;1.70;;;1.70;;
4186;SDS011;2107;52.306;10.484;2023-04-24T12:39:38;1.43;;;1.43;;
4186;SDS011;2107;52.306;10.484;2023-04-24T12:42:26;1.30;;;1.30;;
4186;SDS011;2107;52.306;10.484;2023-04-24T12:44:56;1.23;;;1.23;;
4186;SDS011;2107;52.306;10.484;2023-04-24T12:47:24;1.40;;;1.40;;
4186;SDS011;2107;52.306;10.484;2023-04-24T12:49:51;1.40;;;1.40;;
4186;SDS011;2107;52.306;10.484;2023-04-24T12:52:20;1.20;;;1.20;;
4186;SDS011;2107;52.306;10.484;2023-04-24T12:54:48;1.00;;;1.00;;
4186;SDS011;2107;52.306;10.484;2023-04-24T12:57:15;1.10;;;1.10;;
4186;SDS011;2107;52.306;10.484;2023-04-24T12:59:44;1.50;;;1.50;;
4186;SDS011;2107;52.306;10.484;2023-04-24T13:02:10;1.40;;;1.40;;
4186;SDS011;2107;52.306;10.484;2023-04-24T13:04:38;1.10;;;1.10;;
4186;SDS011;2107;52.306;10.484;2023-04-24T13:07:05;0.70;;;0.70;;
4186;SDS011;2107;52.306;10.484;2023-04-24T13:09:31;0.80;;;0.80;;
4186;SDS011;2107;52.306;10.484;2023-04-24T13:12:00;0.90;;;0.90;;
4186;SDS011;2107;52.306;10.484;2023-04-24T13:14:27;1.00;;;1.00;;
4186;SDS011;2107;52.306;10.484;2023-04-24T13:16:55;0.90;;;0.90;;
4186;SDS011;2107;52.306;10.484;2023-04-24T13:19:23;1.30;;;1.30;;
4186;SDS011;2107;52.306;10.484;2023-04-24T13:21:51;0.90;;;0.90;;
4186;SDS011;2107;52.306;10.484;2023-04-24T13:24:18;1.20;;;1.20;;
4186;SDS011;2107;52.306;10.484;2023-04-24T13:26:45;1.00;;;1.00;;
4186;SDS011;2107;52.306;10.484;2023-04-24T13:29:12;0.80;;;0.80;;
4186;SDS011;2107;52.306;10.484;2023-04-24T13:31:38;1.20;;;1.20;;
4186;SDS011;2107;52.306;10.484;2023-04-24T13:34:07;1.00;;;1.00;;
4186;SDS011;2107;52.306;10.484;2023-04-24T13:36:33;1.10;;;1.10;;
4186;SDS011;2107;52.306;10.484;2023-04-24T13:39:00;0.80;;;0.80;;
4186;SDS011;2107;52.306;10.484;2023-04-24T13:41:29;0.80;;;0.80;;
4186;SDS011;2107;52.306;10.484;2023-04-24T13:43:56;0.90;;;0.90;;
4186;SDS011;2107;52.306;10.484;2023-04-24T13:46:23;1.20;;;1.20;;
4186;SDS011;2107;52.306;10.484;2023-04-24T13:48:50;1.20;;;1.20;;
4186;SDS011;2107;52.306;10.484;2023-04-24T13:51:18;1.07;;;1.07;;
4186;SDS011;2107;52.306;10.484;2023-04-24T13:53:45;0.80;;;0.80;;
4186;SDS011;2107;52.306;10.484;2023-04-24T13:56:12;0.70;;;0.70;;
4186;SDS011;2107;52.306;10.484;2023-04-24T13:58:39;0.90;;;0.90;;
4186;SDS011;2107;52.306;10.484;2023-04-24T14:01:06;1.10;;;1.10;;
4186;SDS011;2107;52.306;10.484;2023-04-24T14:03:33;1.00;;;1.00;;
4186;SDS011;2107;52.306;10.484;2023-04-24T14:06:00;1.10;;;1.10;;
4186;SDS011;2107;52.306;10.484;2023-04-24T14:08:28;0.90;;;0.90;;
4186;SDS011;2107;52.306;10.484;2023-04-24T14:10:55;1.30;;;1.30;;
4186;SDS011;2107;52.306;10.484;2023-04-24T14:13:22;1.10;;;1.10;;
4186;SDS011;2107;52.306;10.484;2023-04-24T14:15:49;1.10;;;1.10;;
4186;SDS011;2107;52.306;10.484;2023-04-24T14:18:16;0.70;;;0.70;;
4186;SDS011;2107;52.306;10.484;2023-04-24T14:20:42;1.00;;;1.00;;
4186;SDS011;2107;52.306;10.484;2023-04-24T14:23:09;0.60;;;0.60;;
4186;SDS011;2107;52.306;10.484;2023-04-24T14:25:37;0.90;;;0.90;;
4186;SDS011;2107;52.306;10.484;2023-04-24T14:28:05;0.80;;;0.80;;
4186;SDS011;2107;52.306;10.484;2023-04-24T14:30:32;0.80;;;0.80;;
4186;SDS011;2107;52.306;10.484;2023-04-24T14:32:59;0.50;;;0.50;;
4186;SDS011;2107;52.306;10.484;2023-04-24T14:35:26;0.90;;;0.90;;
4186;SDS011;2107;52.306;10.484;2023-04-24T14:37:54;0.70;;;0.70;;
4186;SDS011;2107;52.306;10.484;2023-04-24T14:40:21;0.80;;;0.80;;
4186;SDS011;2107;52.306;10.484;2023-04-24T14:42:49;0.90;;;0.90;;
4186;SDS011;2107;52.306;10.484;2023-04-24T14:45:16;0.90;;;0.90;;
4186;SDS011;2107;52.306;10.484;2023-04-24T14:47:43;0.80;;;0.80;;
4186;SDS011;2107;52.306;10.484;2023-04-24T14:50:10;0.63;;;0.63;;
4186;SDS011;2107;52.306;10.484;2023-04-24T14:52:37;0.60;;;0.60;;
4186;SDS011;2107;52.306;10.484;2023-04-24T14:55:05;0.60;;;0.60;;
4186;SDS011;2107;52.306;10.484;2023-04-24T14:57:32;0.80;;;0.80;;
4186;SDS011;2107;52.306;10.484;2023-04-24T15:00:01;0.50;;;0.50;;
4186;SDS011;2107;52.306;10.484;2023-04-24T15:02:30;0.60;;;0.60;;
4186;SDS011;2107;52.306;10.484;2023-04-24T15:04:57;0.60;;;0.60;;
4186;SDS011;2107;52.306;10.484;2023-04-24T15:07:23;0.60;;;0.60;;
4186;SDS011;2107;52.306;10.484;2023-04-24T15:09:50;0.60;;;0.60;;